Time;durP1;ratioP1;P1;durP2;ratioP2;P2;SDS_P1;SDS_P2;PMS_P1;PMS_P2;Temp;Humidity;BMP_temperature;BMP_pressure;BME280_temperature;BME280_humidity;BME280_pressure;Samples;Min_cycle;Max_cycle;Signal;HPM_P1;HPM_P2
2021/12/21 00:02:49;;;;;;;19.23;5.30;;;;;;;-4.17;92.46;99348.94;2181955;82;21048;-66
2021/12/21 00:05:49;;;;;;;19.75;4.78;;;;;;;-4.18;92.34;99340.80;2181925;81;20996;-65
2021/12/21 00:08:50;;;;;;;20.50;5.17;;;;;;;-4.12;92.67;99357.52;2182210;81;21049;-66
2021/12/21 00:11:51;;;;;;;19.67;5.42;;;;;;;-4.07;92.45;99351.98;2181757;81;21056;-66
2021/12/21 00:18:01;;;;;;;21.10;5.60;;;;;;;-4.01;92.47;99350.77;2154841;82;21033;-66
2021/12/21 00:24:02;;;;;;;24.32;6.92;;;;;;;-4.00;92.53;99359.30;2154843;82;20960;-66
2021/12/21 00:27:07;;;;;;;23.47;6.42;;;;;;;-3.96;92.66;99361.04;2154853;82;21499;-67
2021/12/21 00:30:03;;;;;;;21.73;6.67;;;;;;;-3.92;93.12;99361.50;2154814;82;21000;-67
2021/12/21 00:33:03;;;;;;;24.57;6.43;;;;;;;-3.85;93.17;99360.69;2182036;82;21000;-66
2021/12/21 00:36:04;;;;;;;23.27;6.65;;;;;;;-3.83;93.01;99354.28;2181978;81;21016;-66
2021/12/21 00:39:06;;;;;;;23.27;6.53;;;;;;;-3.83;93.17;99356.84;2182049;81;20980;-66
2021/12/21 00:42:06;;;;;;;26.48;7.37;;;;;;;-3.81;93.10;99353.00;2182096;82;21071;-67
2021/12/21 00:45:07;;;;;;;24.10;6.55;;;;;;;-3.80;93.02;99356.01;2181944;81;20989;-67
2021/12/21 00:48:07;;;;;;;23.92;6.78;;;;;;;-3.80;92.96;99361.14;2182086;81;20973;-67
2021/12/21 00:51:08;;;;;;;27.05;7.03;;;;;;;-3.77;93.13;99361.15;2182048;81;20984;-67
2021/12/21 00:54:08;;;;;;;25.55;6.58;;;;;;;-3.74;93.37;99363.29;2181903;81;21578;-67
2021/12/21 00:57:09;;;;;;;27.62;6.87;;;;;;;-3.71;93.01;99359.45;2182021;81;21486;-67
2021/12/21 01:00:10;;;;;;;25.32;6.90;;;;;;;-3.72;92.67;99361.61;2181897;81;20992;-67
2021/12/21 01:03:13;;;;;;;24.30;6.75;;;;;;;-3.76;92.47;99365.00;2182110;81;21008;-63
2021/12/21 01:06:22;;;;;;;24.98;6.67;;;;;;;-3.75;92.64;99365.84;2154718;82;21544;-66
2021/12/21 01:09:48;;;;;;;27.67;7.45;;;;;;;-3.73;92.47;99371.86;2154752;82;21007;-66
2021/12/21 01:12:31;;;;;;;30.65;7.05;;;;;;;-3.69;92.49;99378.72;2154534;82;21052;-67
2021/12/21 01:18:27;;;;;;;24.90;6.83;;;;;;;-3.66;92.25;99377.45;2154886;82;21032;-66
2021/12/21 01:21:29;;;;;;;29.90;7.67;;;;;;;-3.70;92.29;99385.53;2154876;82;21523;-66
2021/12/21 01:27:43;;;;;;;24.55;7.08;;;;;;;-3.65;92.37;99376.58;2182379;81;21028;-66
2021/12/21 01:36:44;;;;;;;26.02;6.85;;;;;;;-3.60;92.45;99370.22;2160519;81;21000;-66
2021/12/21 01:42:54;;;;;;;25.65;7.62;;;;;;;-3.57;92.21;99374.92;2160603;81;21023;-67
2021/12/21 01:51:47;;;;;;;27.93;7.20;;;;;;;-3.51;92.24;99378.79;2160601;81;20984;-67
2021/12/21 01:54:47;;;;;;;26.23;8.25;;;;;;;-3.50;92.33;99373.26;2185735;81;21527;-67
2021/12/21 01:57:48;;;;;;;28.23;7.03;;;;;;;-3.48;92.26;99365.12;2185669;81;21523;-66
2021/12/21 02:00:48;;;;;;;27.93;7.67;;;;;;;-3.46;92.33;99375.39;2185730;81;21032;-66
2021/12/21 02:03:49;;;;;;;28.35;7.25;;;;;;;-3.44;92.43;99369.86;2185848;81;20994;-66
2021/12/21 02:06:50;;;;;;;27.17;7.90;;;;;;;-3.45;92.38;99377.12;2185311;81;21099;-66
2021/12/21 02:09:50;;;;;;;27.25;7.37;;;;;;;-3.44;92.46;99368.58;2185871;81;20984;-65
2021/12/21 02:12:51;;;;;;;26.23;7.55;;;;;;;-3.47;92.42;99362.16;2185860;81;21519;-66
2021/12/21 02:15:51;;;;;;;30.12;7.85;;;;;;;-3.54;92.19;99364.67;2185685;81;21542;-67
2021/12/21 02:19:01;;;;;;;25.65;7.75;;;;;;;-3.60;92.70;99367.66;2185737;81;21045;-66
2021/12/21 02:22:05;;;;;;;29.65;8.03;;;;;;;-3.62;92.78;99374.47;2160653;81;20981;-67
2021/12/21 02:25:07;;;;;;;29.32;7.92;;;;;;;-3.62;93.18;99372.78;2160627;81;21001;-64
2021/12/21 02:28:12;;;;;;;27.40;7.37;;;;;;;-3.60;93.33;99375.34;2159919;81;21044;-67
2021/12/21 02:31:01;;;;;;;29.00;8.13;;;;;;;-3.58;93.44;99376.20;2154873;82;20984;-66
2021/12/21 02:34:01;;;;;;;25.17;7.25;;;;;;;-3.55;93.40;99378.37;2181892;81;21028;-66
2021/12/21 02:37:02;;;;;;;26.37;7.67;;;;;;;-3.56;93.38;99377.93;2182144;81;21571;-67
2021/12/21 02:40:02;;;;;;;27.02;7.62;;;;;;;-3.55;93.46;99374.52;2182069;81;20982;-67
2021/12/21 02:43:02;;;;;;;24.63;7.25;;;;;;;-3.53;93.43;99374.53;2182059;82;20988;-67
2021/12/21 02:46:03;;;;;;;23.85;7.37;;;;;;;-3.55;93.10;99365.55;2181796;81;21052;-66
2021/12/21 02:49:04;;;;;;;25.10;7.30;;;;;;;-3.60;93.07;99387.73;2182144;81;21060;-67
2021/12/21 02:52:04;;;;;;;22.58;6.60;;;;;;;-3.62;93.14;99380.88;2182179;81;20972;-66
2021/12/21 02:55:05;;;;;;;28.50;7.35;;;;;;;-3.68;92.66;99380.02;2182302;81;21011;-66
2021/12/21 02:58:05;;;;;;;24.77;7.67;;;;;;;-3.67;93.02;99384.70;2181997;81;21055;-66
2021/12/21 03:01:05;;;;;;;23.67;6.45;;;;;;;-3.63;93.12;99384.28;2182023;81;21511;-67
2021/12/21 03:04:07;;;;;;;22.98;6.05;;;;;;;-3.60;93.15;99386.89;2182115;81;21060;-65
2021/12/21 03:10:13;;;;;;;23.30;6.22;;;;;;;-3.58;92.22;99401.41;2155078;82;20997;-67
2021/12/21 03:16:15;;;;;;;24.52;6.70;;;;;;;-3.53;92.25;99392.48;2154941;82;21555;-66
2021/12/21 03:19:15;;;;;;;22.13;6.75;;;;;;;-3.51;92.28;99397.18;2182123;81;21003;-67
2021/12/21 03:22:16;;;;;;;22.65;6.22;;;;;;;-3.49;92.07;99394.22;2182493;81;21024;-66
2021/12/21 03:25:17;;;;;;;25.40;6.80;;;;;;;-3.46;91.88;99392.06;2182123;81;20948;-66
2021/12/21 03:28:17;;;;;;;20.77;6.20;;;;;;;-3.45;91.91;99393.36;2181835;81;21514;-66
2021/12/21 03:31:17;;;;;;;22.58;6.25;;;;;;;-3.42;91.95;99387.39;2181967;82;21072;-67
2021/12/21 03:34:18;;;;;;;23.00;6.17;;;;;;;-3.43;91.72;99386.95;2181959;81;20988;-66
2021/12/21 03:37:18;;;;;;;20.48;5.97;;;;;;;-3.43;91.68;99381.81;2182219;81;21072;-67
2021/12/21 03:40:19;;;;;;;22.67;6.28;;;;;;;-3.42;91.91;99380.57;2181978;81;20965;-66
2021/12/21 03:43:20;;;;;;;24.32;6.83;;;;;;;-3.45;91.76;99392.51;2182136;81;21064;-66
2021/12/21 03:46:20;;;;;;;22.93;6.62;;;;;;;-3.45;91.96;99388.22;2182009;82;21511;-67
2021/12/21 03:52:23;;;;;;;20.52;5.28;;;;;;;-3.45;91.78;99388.66;2154894;82;21480;-66
2021/12/21 03:55:24;;;;;;;19.87;5.50;;;;;;;-3.45;91.92;99391.23;2181965;82;21104;-67
2021/12/21 03:58:24;;;;;;;21.23;6.22;;;;;;;-3.47;91.97;99386.09;2182215;81;21011;-67
2021/12/21 04:01:25;;;;;;;22.05;5.72;;;;;;;-3.51;91.81;99383.08;2182041;82;21016;-66
2021/12/21 04:04:25;;;;;;;22.55;5.58;;;;;;;-3.49;91.46;99389.93;2181913;82;21467;-66
2021/12/21 04:07:26;;;;;;;21.00;5.85;;;;;;;-3.46;91.59;99398.08;2181954;81;21064;-66
2021/12/21 04:10:26;;;;;;;24.82;5.85;;;;;;;-3.45;91.20;99397.20;2181947;81;21027;-66
2021/12/21 04:13:27;;;;;;;23.83;6.22;;;;;;;-3.40;91.08;99398.09;2182210;81;21075;-66
2021/12/21 04:16:28;;;;;;;20.88;5.60;;;;;;;-3.39;91.10;99401.50;2182024;81;21008;-66
2021/12/21 04:19:28;;;;;;;21.35;5.53;;;;;;;-3.39;90.74;99397.66;2181906;82;21602;-67
2021/12/21 04:22:28;;;;;;;20.72;5.70;;;;;;;-3.35;90.75;99398.98;2181908;81;21058;-67
2021/12/21 04:25:29;;;;;;;19.73;5.78;;;;;;;-3.32;90.41;99402.84;2181811;81;21143;-66
2021/12/21 04:28:29;;;;;;;20.82;5.00;;;;;;;-3.32;90.35;99401.56;2182040;81;20976;-67
2021/12/21 04:31:30;;;;;;;23.98;5.58;;;;;;;-3.34;89.80;99407.53;2182169;81;21036;-66
2021/12/21 04:34:31;;;;;;;19.65;5.00;;;;;;;-3.37;89.76;99403.23;2182033;81;20952;-66
2021/12/21 04:37:35;;;;;;;21.95;5.25;;;;;;;-3.37;89.98;99408.36;2181881;81;21027;-66
2021/12/21 04:43:36;;;;;;;20.08;5.50;;;;;;;-3.34;90.17;99397.27;2154869;82;20988;-66
2021/12/21 04:46:37;;;;;;;18.60;5.17;;;;;;;-3.38;90.02;99411.77;2181856;81;21527;-67
2021/12/21 04:49:37;;;;;;;19.67;5.00;;;;;;;-3.42;90.25;99407.50;2181916;81;21028;-65
2021/12/21 04:52:38;;;;;;;21.12;5.10;;;;;;;-3.42;90.18;99416.48;2181867;81;21122;-66
2021/12/21 04:55:38;;;;;;;22.60;5.45;;;;;;;-3.41;90.08;99408.35;2182128;82;21004;-66
2021/12/21 04:58:38;;;;;;;21.23;5.20;;;;;;;-3.38;89.76;99414.77;2181934;81;21048;-66
2021/12/21 05:01:39;;;;;;;21.02;4.85;;;;;;;-3.37;89.74;99413.93;2181716;82;21539;-67
2021/12/21 05:04:39;;;;;;;18.92;4.75;;;;;;;-3.36;89.96;99410.09;2182012;81;21072;-65
2021/12/21 05:07:42;;;;;;;20.32;5.08;;;;;;;-3.32;89.79;99414.80;2181942;81;21035;-66
2021/12/21 05:13:44;;;;;;;18.23;4.42;;;;;;;-3.27;89.65;99422.09;2154823;82;21023;-65
2021/12/21 05:16:45;;;;;;;16.97;4.17;;;;;;;-3.24;89.13;99420.83;2182122;81;21084;-66
2021/12/21 05:19:45;;;;;;;16.65;4.35;;;;;;;-3.23;89.06;99431.53;2181935;81;21040;-67
2021/12/21 05:22:48;;;;;;;20.88;5.03;;;;;;;-3.18;89.28;99430.26;2182228;82;20977;-67
2021/12/21 05:25:48;;;;;;;15.98;4.05;;;;;;;-3.18;88.83;99427.25;2154786;82;21487;-67
2021/12/21 05:28:48;;;;;;;18.02;4.58;;;;;;;-3.18;88.50;99431.11;2182620;81;21071;-66
2021/12/21 05:31:49;;;;;;;15.72;4.17;;;;;;;-3.17;88.61;99427.70;2185808;81;21043;-66
2021/12/21 05:34:49;;;;;;;16.60;4.20;;;;;;;-3.17;88.40;99434.11;2185524;81;21022;-67
2021/12/21 05:37:54;;;;;;;16.77;4.55;;;;;;;-3.15;88.14;99434.12;2185352;81;21035;-66
2021/12/21 05:40:54;;;;;;;18.48;4.55;;;;;;;-3.14;88.11;99434.56;2160614;81;21451;-67
2021/12/21 05:43:55;;;;;;;20.70;4.22;;;;;;;-3.12;88.10;99443.11;2185779;81;21043;-67
2021/12/21 05:46:55;;;;;;;19.23;4.80;;;;;;;-3.15;88.11;99445.67;2185651;81;21012;-65
2021/12/21 05:49:56;;;;;;;17.02;4.47;;;;;;;-3.17;88.14;99441.81;2185543;81;20996;-65
2021/12/21 05:52:56;;;;;;;20.10;4.55;;;;;;;-3.14;88.04;99444.83;2185432;81;21440;-66
2021/12/21 05:55:57;;;;;;;16.02;4.20;;;;;;;-3.17;87.89;99452.52;2185599;81;21581;-66
2021/12/21 05:58:57;;;;;;;19.55;4.60;;;;;;;-3.20;88.06;99440.52;2185687;81;20972;-66
2021/12/21 06:01:57;;;;;;;18.73;4.83;;;;;;;-3.19;88.55;99449.06;2185548;81;21052;-66
2021/12/21 06:04:58;;;;;;;17.12;4.25;;;;;;;-3.20;88.45;99462.33;2185629;81;21026;-66
2021/12/21 06:07:58;;;;;;;17.42;4.45;;;;;;;-3.19;88.38;99449.95;2185670;81;21036;-66
2021/12/21 06:11:00;;;;;;;20.48;4.65;;;;;;;-3.20;88.05;99449.50;2185667;81;21008;-66
2021/12/21 06:14:15;;;;;;;19.52;4.90;;;;;;;-3.22;88.00;99451.22;2185877;81;20968;-66
2021/12/21 06:26:13;;;;;;;14.85;4.00;;;;;;;-3.30;87.89;99460.58;2160599;81;20984;-66
2021/12/21 06:29:13;;;;;;;18.77;4.25;;;;;;;-3.32;87.31;99464.82;2159671;81;21092;-66
2021/12/21 06:32:13;;;;;;;18.15;4.47;;;;;;;-3.36;87.17;99470.38;2182051;81;21527;-66
2021/12/21 06:35:13;;;;;;;18.62;4.70;;;;;;;-3.39;87.16;99478.47;2182025;81;20981;-66
2021/12/21 06:38:14;;;;;;;17.00;4.55;;;;;;;-3.49;87.28;99480.14;2182018;81;21095;-66
2021/12/21 06:41:14;;;;;;;18.25;4.70;;;;;;;-3.49;87.51;99488.69;2182298;81;21052;-66
2021/12/21 06:44:16;;;;;;;19.27;4.97;;;;;;;-3.51;87.39;99495.92;2181741;82;21083;-66
2021/12/21 06:53:21;;;;;;;;;;;;;;;-3.59;86.95;99513.84;2157144;82;21025;-66
2021/12/21 06:56:22;;;;;;;16.25;4.28;;;;;;;-3.60;86.86;99504.86;2182103;82;20392;-67
2021/12/21 06:59:22;;;;;;;19.57;4.42;;;;;;;-3.59;87.14;99506.14;2182161;82;20981;-67
2021/12/21 07:02:22;;;;;;;15.32;4.00;;;;;;;-3.55;86.70;99513.02;2182244;82;20984;-66
2021/12/21 07:05:23;;;;;;;14.40;4.17;;;;;;;-3.50;87.15;99511.33;2182126;81;21041;-66
2021/12/21 07:08:28;;;;;;;18.17;4.60;;;;;;;-3.42;86.95;99516.53;2182159;81;20972;-66
2021/12/21 07:20:33;;;;;;;19.52;4.97;;;;;;;-3.27;86.14;99525.17;2154919;82;21020;-66
2021/12/21 07:23:33;;;;;;;20.72;4.85;;;;;;;-3.21;86.36;99523.91;2182132;81;20993;-66
2021/12/21 07:26:33;;;;;;;18.95;5.10;;;;;;;-3.14;86.56;99523.10;2182014;81;21559;-66
2021/12/21 07:29:34;;;;;;;20.05;4.92;;;;;;;-3.11;86.30;99532.53;2181912;81;21009;-66
2021/12/21 07:32:34;;;;;;;19.00;4.65;;;;;;;-3.10;86.29;99524.84;2182101;81;21083;-66
2021/12/21 07:35:35;;;;;;;18.07;4.45;;;;;;;-3.08;85.91;99521.84;2182007;82;21007;-65
2021/12/21 07:38:35;;;;;;;19.90;4.70;;;;;;;-3.13;85.75;99522.26;2181992;81;21154;-66
2021/12/21 07:41:36;;;;;;;18.73;4.80;;;;;;;-3.15;85.05;99534.20;2181936;81;21491;-66
2021/12/21 07:44:36;;;;;;;18.80;4.80;;;;;;;-3.13;85.51;99537.66;2181911;81;20969;-66
2021/12/21 07:47:37;;;;;;;20.20;5.10;;;;;;;-3.11;85.34;99537.23;2181978;81;20977;-67
2021/12/21 07:50:37;;;;;;;19.05;4.78;;;;;;;-3.14;85.27;99537.22;2181999;81;20948;-66
2021/12/21 07:53:38;;;;;;;20.02;5.12;;;;;;;-3.15;84.92;99541.91;2181589;82;21036;-66
2021/12/21 07:56:39;;;;;;;19.17;5.33;;;;;;;-3.08;84.84;99543.66;2182064;82;21039;-66
2021/12/21 07:59:39;;;;;;;19.50;5.10;;;;;;;-2.92;84.57;99554.02;2181992;81;20992;-66
2021/12/21 08:02:40;;;;;;;19.17;5.55;;;;;;;-2.82;84.29;99550.20;2182185;82;21033;-66
2021/12/21 08:05:41;;;;;;;20.75;4.83;;;;;;;-2.76;83.92;99556.23;2181984;82;21517;-66
2021/12/21 08:08:44;;;;;;;20.27;5.00;;;;;;;-2.76;82.51;99562.66;2181953;82;21057;-67
2021/12/21 08:14:46;;;;;;;21.65;5.25;;;;;;;-2.83;81.56;99555.34;2154796;82;21073;-65
2021/12/21 08:17:47;;;;;;;21.17;5.08;;;;;;;-3.03;82.16;99543.27;2182059;82;21012;-67
2021/12/21 08:20:49;;;;;;;20.45;4.78;;;;;;;-3.16;82.44;99558.14;2181887;81;21594;-66
2021/12/21 08:23:50;;;;;;;19.67;5.20;;;;;;;-3.16;82.14;99556.45;2181876;82;21001;-65
2021/12/21 08:26:50;;;;;;;18.10;4.60;;;;;;;-2.92;82.92;99560.00;2182182;82;21089;-66
2021/12/21 08:29:51;;;;;;;18.48;4.40;;;;;;;-2.68;82.03;99575.11;2182993;81;21013;-67
2021/12/21 08:32:51;;;;;;;18.77;4.92;;;;;;;-2.45;80.56;99580.34;2185667;81;21594;-66
2021/12/21 08:35:52;;;;;;;19.42;5.20;;;;;;;-2.29;80.99;99576.96;2185578;81;20964;-67
2021/12/21 08:38:52;;;;;;;18.73;5.12;;;;;;;-2.25;79.91;99606.12;2185626;81;21020;-66
2021/12/21 08:41:57;;;;;;;18.70;4.53;;;;;;;-2.24;81.07;99594.11;2185847;81;20945;-66
2021/12/21 08:44:56;;;;;;;18.75;5.00;;;;;;;-2.22;79.67;99604.84;2160463;81;21068;-67
2021/12/21 08:47:59;;;;;;;18.27;4.80;;;;;;;-2.33;79.71;99620.64;2185844;81;21012;-67
2021/12/21 08:51:00;;;;;;;19.73;4.80;;;;;;;-2.36;81.01;99615.06;2185858;81;21016;-66
2021/12/21 08:54:01;;;;;;;17.23;4.47;;;;;;;-2.41;79.08;99624.48;2185626;81;21502;-66
2021/12/21 08:57:02;;;;;;;18.98;5.05;;;;;;;-2.66;79.83;99623.48;2185568;81;20969;-67
2021/12/21 09:00:03;;;;;;;18.00;5.37;;;;;;;-2.80;79.57;99615.29;2185603;81;20957;-66
2021/12/21 09:03:04;;;;;;;19.35;4.50;;;;;;;-2.87;79.75;99625.09;2185256;81;21159;-65
2021/12/21 09:06:05;;;;;;;16.93;4.37;;;;;;;-2.89;79.62;99626.77;2185479;81;20988;-66
2021/12/21 09:09:06;;;;;;;16.95;4.42;;;;;;;-2.95;78.81;99629.30;2185553;81;20976;-67
2021/12/21 09:12:07;;;;;;;17.20;4.70;;;;;;;-2.93;80.41;99621.20;2185226;81;21083;-67
2021/12/21 09:15:07;;;;;;;18.17;5.00;;;;;;;-2.93;79.66;99620.33;2185211;81;21032;-66
2021/12/21 09:18:08;;;;;;;20.35;5.15;;;;;;;-2.86;79.18;99616.55;2185682;81;21004;-66
2021/12/21 09:21:09;;;;;;;20.82;4.83;;;;;;;-2.69;78.90;99628.17;2185377;81;20992;-66
2021/12/21 09:24:10;;;;;;;21.37;5.30;;;;;;;-2.69;78.46;99623.03;2185495;81;21476;-67
2021/12/21 09:27:11;;;;;;;19.02;4.80;;;;;;;-2.82;78.78;99626.39;2185583;81;20984;-66
2021/12/21 09:30:12;;;;;;;17.30;4.72;;;;;;;-2.86;78.61;99624.25;2185496;81;21052;-66
2021/12/21 09:33:13;;;;;;;20.45;4.92;;;;;;;-2.62;78.90;99623.94;2185688;81;21472;-67
2021/12/21 09:36:13;;;;;;;18.42;5.20;;;;;;;-2.35;77.54;99612.08;2185548;81;21546;-66
2021/12/21 09:39:14;;;;;;;16.90;4.78;;;;;;;-2.14;78.45;99609.58;2185696;81;21522;-67
2021/12/21 09:42:14;;;;;;;19.02;5.03;;;;;;;-2.01;76.12;99620.77;2185574;81;21056;-66
2021/12/21 09:45:14;;;;;;;17.77;4.95;;;;;;;-1.90;75.69;99618.64;2185544;81;21043;-67
2021/12/21 09:48:15;;;;;;;18.52;4.75;;;;;;;-1.98;76.02;99622.49;2185778;81;20992;-66
2021/12/21 09:51:15;;;;;;;16.10;4.83;;;;;;;-1.78;76.61;99623.38;2185228;81;21008;-66
2021/12/21 09:54:16;;;;;;;17.07;4.75;;;;;;;-1.93;75.70;99623.34;2185648;81;20952;-67
2021/12/21 09:57:17;;;;;;;18.82;5.15;;;;;;;-2.11;75.83;99619.87;2185580;81;21020;-66
2021/12/21 10:00:18;;;;;;;19.42;4.90;;;;;;;-1.98;75.11;99627.63;2185866;81;21001;-66
2021/12/21 10:03:18;;;;;;;19.25;5.30;;;;;;;-1.67;76.37;99627.25;2185855;81;20984;-67
2021/12/21 10:06:19;;;;;;;16.87;4.58;;;;;;;-1.46;74.72;99631.56;2185744;81;21016;-67
2021/12/21 10:09:20;;;;;;;17.42;4.62;;;;;;;-1.33;73.48;99628.56;2185895;81;20976;-66
2021/12/21 10:12:21;;;;;;;19.97;5.30;;;;;;;-1.33;71.27;99630.30;2186380;81;20995;-65
2021/12/21 10:15:22;;;;;;;15.20;4.40;;;;;;;-1.42;72.27;99629.42;2185395;81;21028;-67
2021/12/21 10:18:22;;;;;;;16.55;4.70;;;;;;;-1.44;71.01;99632.84;2185835;81;21047;-66
2021/12/21 10:21:23;;;;;;;20.48;5.53;;;;;;;-1.38;70.92;99634.57;2185866;81;21100;-66
2021/12/21 10:24:24;;;;;;;19.17;5.22;;;;;;;-1.38;70.73;99637.99;2185555;81;21047;-67
2021/12/21 10:27:24;;;;;;;20.32;4.85;;;;;;;-1.46;70.73;99631.56;2185701;81;21044;-66
2021/12/21 10:30:25;;;;;;;20.88;4.97;;;;;;;-1.28;73.05;99628.56;2184693;81;21554;-67
2021/12/21 10:33:26;;;;;;;19.73;5.55;;;;;;;-1.30;71.66;99632.87;2182164;81;20929;-66
2021/12/21 10:36:29;;;;;;;16.97;5.00;;;;;;;-1.21;70.80;99632.85;2182188;81;21546;-67
2021/12/21 10:39:31;;;;;;;18.50;5.15;;;;;;;-1.21;70.12;99639.29;2154962;82;21031;-67
2021/12/21 10:42:31;;;;;;;19.87;5.42;;;;;;;-1.06;70.49;99631.56;2154951;82;21048;-66
2021/12/21 10:45:31;;;;;;;20.23;5.60;;;;;;;-0.95;70.81;99631.98;2182074;81;20996;-66
2021/12/21 10:48:35;;;;;;;19.27;5.03;;;;;;;-0.95;71.52;99625.53;2182169;81;21529;-67
2021/12/21 10:51:34;;;;;;;17.50;5.00;;;;;;;-1.04;68.28;99626.41;2154266;82;21542;-66
2021/12/21 10:54:34;;;;;;;18.37;5.08;;;;;;;-1.00;69.11;99622.98;2180973;82;21285;-67
2021/12/21 10:57:36;;;;;;;20.80;5.90;;;;;;;-0.91;69.34;99616.95;2180958;82;21043;-67
2021/12/21 11:00:37;;;;;;;19.17;5.50;;;;;;;-0.93;69.02;99601.50;2180916;82;20960;-67
2021/12/21 11:03:40;;;;;;;17.80;4.90;;;;;;;-0.92;70.98;99607.09;2181264;81;21011;-66
2021/12/21 11:06:47;;;;;;;21.25;5.65;;;;;;;-0.97;66.63;99608.80;2154735;82;21000;-68
2021/12/21 11:09:42;;;;;;;18.95;5.42;;;;;;;-0.84;67.49;99612.66;2155000;82;21048;-67
2021/12/21 11:12:43;;;;;;;19.00;4.83;;;;;;;-0.92;68.89;99604.52;2182146;82;20988;-68
2021/12/21 11:15:44;;;;;;;19.93;5.27;;;;;;;-1.06;65.23;99608.39;2181899;82;21079;-67
2021/12/21 11:18:45;;;;;;;17.27;4.87;;;;;;;-1.03;68.87;99605.37;2181844;82;21635;-67
2021/12/21 11:21:45;;;;;;;18.82;5.42;;;;;;;-1.11;64.64;99600.23;2182148;81;20972;-66
2021/12/21 11:24:46;;;;;;;19.23;4.90;;;;;;;-1.17;65.34;99607.98;2181963;82;20985;-67
2021/12/21 11:27:47;;;;;;;22.73;5.85;;;;;;;-1.08;66.12;99614.39;2181961;81;21059;-67
2021/12/21 11:30:47;;;;;;;19.45;4.95;;;;;;;-0.93;69.65;99591.20;2182003;82;21008;-66
2021/12/21 11:33:49;;;;;;;16.70;4.60;;;;;;;-1.08;66.71;99601.11;2182087;81;21463;-67
2021/12/21 11:39:52;;;;;;;19.50;5.30;;;;;;;-0.97;67.32;99602.36;2154824;82;21020;-67
2021/12/21 11:42:53;;;;;;;20.57;5.20;;;;;;;-0.66;66.50;99601.43;2182080;81;20992;-67
2021/12/21 11:45:54;;;;;;;18.57;4.90;;;;;;;-0.64;66.90;99599.72;2182131;82;21523;-67
2021/12/21 11:48:54;;;;;;;19.27;5.55;;;;;;;-0.66;65.28;99602.30;2182006;81;21039;-67
2021/12/21 11:51:55;;;;;;;21.95;5.92;;;;;;;-0.64;67.75;99595.41;2182132;81;21079;-66
2021/12/21 11:54:58;;;;;;;17.95;5.20;;;;;;;-0.62;66.04;99592.83;2154610;82;21567;-67
2021/12/21 11:57:59;;;;;;;17.65;5.15;;;;;;;-0.59;65.62;99592.81;2181973;82;21047;-67
2021/12/21 12:01:00;;;;;;;19.32;5.20;;;;;;;-0.46;67.44;99586.78;2181995;82;20956;-67
2021/12/21 12:04:01;;;;;;;18.77;5.22;;;;;;;-0.38;66.82;99591.89;2181965;82;21455;-66
2021/12/21 12:07:02;;;;;;;19.32;4.95;;;;;;;-0.34;65.51;99594.88;2182233;81;21011;-67
2021/12/21 12:10:03;;;;;;;18.20;5.33;;;;;;;-0.49;63.57;99593.64;2181770;82;21072;-67
2021/12/21 12:13:03;;;;;;;19.50;5.35;;;;;;;-0.79;64.79;99592.88;2181659;82;21511;-67
2021/12/21 12:16:04;;;;;;;19.05;5.42;;;;;;;-0.76;66.39;99593.73;2181877;82;21036;-67
2021/12/21 12:19:04;;;;;;;22.62;6.35;;;;;;;-0.83;64.08;99601.05;2181953;81;21031;-67
2021/12/21 12:22:05;;;;;;;20.80;5.78;;;;;;;-0.91;65.24;99597.19;2182020;81;21542;-65
2021/12/21 12:25:05;;;;;;;20.25;5.78;;;;;;;-0.92;66.51;99594.63;2181873;81;20945;-67
2021/12/21 12:28:05;;;;;;;18.37;5.45;;;;;;;-0.90;65.74;99593.77;2181933;82;21036;-67
2021/12/21 12:31:06;;;;;;;21.25;5.75;;;;;;;-1.01;65.30;99604.52;2183252;81;20984;-67
2021/12/21 12:34:06;;;;;;;21.40;5.17;;;;;;;-1.30;65.03;99600.25;2185646;81;21039;-67
2021/12/21 12:37:07;;;;;;;22.05;5.62;;;;;;;-1.52;65.88;99580.11;2185367;81;21000;-67
2021/12/21 12:40:08;;;;;;;19.52;5.50;;;;;;;-1.61;65.70;99595.11;2185523;81;21023;-67
2021/12/21 12:43:08;;;;;;;20.55;5.30;;;;;;;-1.48;67.70;99587.38;2185564;81;20929;-67
2021/12/21 12:46:10;;;;;;;20.10;5.25;;;;;;;-1.48;66.64;99592.53;2185598;81;20977;-67
2021/12/21 12:49:10;;;;;;;18.42;5.05;;;;;;;-1.52;65.56;99595.95;2185685;81;21024;-67
2021/12/21 12:52:12;;;;;;;18.90;5.25;;;;;;;-1.49;68.70;99592.97;2185986;81;20983;-68
2021/12/21 12:55:13;;;;;;;20.87;5.43;;;;;;;-1.42;65.80;99598.55;2185925;81;20968;-67
2021/12/21 12:58:14;;;;;;;20.57;5.65;;;;;;;-1.54;65.73;99590.81;2185664;81;21305;-67
2021/12/21 13:04:17;;;;;;;20.70;6.03;;;;;;;-1.82;67.18;99575.36;2160482;81;21000;-66
2021/12/21 13:07:17;;;;;;;22.13;6.20;;;;;;;-1.68;68.67;99592.52;2185504;81;21079;-67
2021/12/21 13:10:18;;;;;;;20.30;5.85;;;;;;;-1.60;68.17;99595.96;2185712;81;21487;-66
2021/12/21 13:13:18;;;;;;;19.60;5.08;;;;;;;-1.67;66.87;99603.25;2185518;81;21016;-67
2021/12/21 13:16:19;;;;;;;21.02;5.85;;;;;;;-1.79;66.53;99604.94;2185663;81;21534;-68
2021/12/21 13:19:21;;;;;;;19.10;5.12;;;;;;;-1.83;67.34;99603.66;2185690;81;21538;-67
2021/12/21 13:22:22;;;;;;;;;;;;;;;-1.89;68.05;99604.94;2188406;81;21008;-67
2021/12/21 13:25:23;;;;;;;19.52;5.28;;;;;;;-2.10;67.27;99611.31;2185229;81;20098;-67
2021/12/21 13:28:23;;;;;;;20.02;5.30;;;;;;;-2.25;67.68;99609.97;2185708;81;21039;-67
2021/12/21 13:31:24;;;;;;;18.67;5.35;;;;;;;-2.38;68.81;99617.22;2185492;81;21353;-67
2021/12/21 13:34:24;;;;;;;19.45;5.03;;;;;;;-2.49;68.96;99620.56;2185563;81;21526;-67
2021/12/21 13:37:27;;;;;;;20.02;5.30;;;;;;;-2.63;69.38;99620.52;2185746;81;21032;-67
2021/12/21 13:40:30;;;;;;;19.57;5.40;;;;;;;-2.77;69.30;99626.01;2160603;81;21024;-67
2021/12/21 13:43:30;;;;;;;20.35;5.17;;;;;;;-2.84;69.54;99621.69;2160597;81;21016;-67
2021/12/21 13:46:30;;;;;;;19.27;4.65;;;;;;;-2.97;69.79;99622.88;2185862;81;21020;-66
2021/12/21 13:49:31;;;;;;;18.80;4.40;;;;;;;-3.15;69.47;99623.62;2185855;81;21008;-66
2021/12/21 13:52:31;;;;;;;20.48;4.97;;;;;;;-3.29;69.86;99625.20;2185997;81;21435;-67
2021/12/21 13:55:32;;;;;;;19.32;4.72;;;;;;;-3.39;70.55;99628.14;2185701;81;21028;-67
2021/12/21 13:58:32;;;;;;;21.45;5.25;;;;;;;-3.54;70.61;99637.83;2185843;81;21007;-67
2021/12/21 14:01:35;;;;;;;20.10;5.00;;;;;;;-3.63;71.00;99626.62;2185540;81;21553;-67
2021/12/21 14:04:47;;;;;;;16.77;4.35;;;;;;;-3.72;71.49;99630.84;2160648;81;21503;-67
2021/12/21 14:07:37;;;;;;;19.55;4.95;;;;;;;-3.77;71.63;99635.48;2160604;81;20957;-67
2021/12/21 14:10:38;;;;;;;15.90;4.20;;;;;;;-3.86;71.60;99637.09;2185717;81;20984;-68
2021/12/21 14:13:40;;;;;;;15.72;4.30;;;;;;;-4.00;72.00;99636.09;2185761;81;21310;-67
2021/12/21 14:16:41;;;;;;;20.17;5.10;;;;;;;-4.07;72.44;99636.87;2160583;81;21020;-67
2021/12/21 14:19:43;;;;;;;20.82;5.20;;;;;;;-4.11;72.65;99637.67;2185802;81;21016;-67
2021/12/21 14:22:43;;;;;;;21.37;4.85;;;;;;;-4.15;72.93;99641.92;2160594;81;20992;-67
2021/12/21 14:25:44;;;;;;;20.37;5.15;;;;;;;-4.17;73.07;99632.05;2185712;81;21498;-67
2021/12/21 14:28:44;;;;;;;19.50;5.17;;;;;;;-4.12;73.24;99632.09;2185640;81;21103;-67
2021/12/21 14:31:49;;;;;;;22.17;6.03;;;;;;;-4.17;73.41;99638.45;2184155;81;21000;-66
2021/12/21 14:34:47;;;;;;;31.90;9.43;;;;;;;-4.14;73.72;99642.77;2154947;82;21523;-67
2021/12/21 14:37:48;;;;;;;40.45;14.30;;;;;;;-4.16;73.70;99632.94;2182265;81;21019;-67
2021/12/21 14:40:48;;;;;;;48.68;17.95;;;;;;;-4.09;73.93;99638.56;2182267;82;20989;-67
2021/12/21 14:43:49;;;;;;;56.28;20.43;;;;;;;-4.04;73.92;99631.38;2182082;82;20988;-67
2021/12/21 14:46:50;;;;;;;54.50;21.25;;;;;;;-3.96;73.76;99634.44;2185466;81;21054;-67
2021/12/21 14:49:53;;;;;;;73.30;26.37;;;;;;;-3.87;73.98;99634.52;2168418;82;21064;-67
2021/12/21 14:52:59;;;;;;;102.27;37.50;;;;;;;-3.85;73.92;99624.73;2185235;81;21553;-65
2021/12/21 14:55:56;;;;;;;123.67;44.00;;;;;;;-3.83;73.88;99629.43;2141470;82;21096;-67
2021/12/21 14:58:56;;;;;;;121.40;45.30;;;;;;;-3.75;73.95;99620.55;2185514;81;20944;-67
2021/12/21 15:02:03;;;;;;;135.97;48.13;;;;;;;-3.70;73.68;99623.16;2168153;82;20961;-67
2021/12/21 15:04:59;;;;;;;140.60;50.58;;;;;;;-3.70;74.05;99625.72;2156773;81;21462;-67
2021/12/21 15:07:59;;;;;;;156.40;61.20;;;;;;;-3.66;73.79;99622.34;2168269;82;20965;-68
2021/12/21 15:11:00;;;;;;;188.97;73.25;;;;;;;-3.61;73.86;99615.97;2185671;81;20936;-67
2021/12/21 15:14:00;;;;;;;177.60;73.22;;;;;;;-3.61;73.97;99615.97;2168217;82;21041;-67
2021/12/21 15:17:01;;;;;;;154.15;59.93;;;;;;;-3.59;74.01;99610.02;2185445;81;21046;-67